Hlavní strana
METAR-TAF:

METAR-TAF

Letiště :

Rock Hill/York County Airport (Bryant Field)

Rock Hill, Jižní Karolína, Spojené státy americké

zeměpisná šířka: 34-59-02N, zeměpisná délka: 081-03-21W, výška: 204 m

Aktuální stav počasí

Zpráva byla vytvořena před 35 minutami, v 16:54 UTC
Severní vítr 7 kt
Teplota 32°C
Vlhkost vzduchu 46%
Tlak 1016 hPa
Viditelnost: 16.1 km
Jasno

METAR: KUZA 031654Z AUTO 01007KT 10SM CLR 32/19 A3000 RMK AO2 SLP145 T03220189

Čas: 13:29 (17:29 UTC)


TAF: chybějící

Stav a předpovědi počasí z více než 4 000 letišť (zprávy METAR a TAF).

Červené a žluté tečky na mapě představují dostupné meteorologické stanice.

Když kurzor umístíte na tečku, zobrazí se název stanice.

Pak kliknutím zobrazíte stav a předpověď počasí.

Chcete-li změnit mapu, kliknutím na zelené tlačítko se znaménkem +mapu přiblížíte, kliknutím na zelené tlačítko se znaménkem – mapu oddálíte a kliknutím na zelené šipky přejdete na sousední mapy.


METAR-TAF: